sensor_id;sensor_type;location;lat;lon;timestamp;pressure;altitude;pressure_sealevel;temperature;humidity
3294;BME280;1659;51.470;6.770;2024-01-30T00:00:41;102538.34;;;9.18;83.83
3294;BME280;1659;51.470;6.770;2024-01-30T00:03:09;102536.56;;;9.17;83.91
3294;BME280;1659;51.470;6.770;2024-01-30T00:05:35;102541.84;;;9.16;83.78
3294;BME280;1659;51.470;6.770;2024-01-30T00:08:02;102543.53;;;9.14;83.72
3294;BME280;1659;51.470;6.770;2024-01-30T00:10:29;102537.38;;;9.13;83.63
3294;BME280;1659;51.470;6.770;2024-01-30T00:12:56;102536.53;;;9.14;84.00
3294;BME280;1659;51.470;6.770;2024-01-30T00:15:22;102534.78;;;9.15;84.15
3294;BME280;1659;51.470;6.770;2024-01-30T00:17:49;102533.94;;;9.17;83.62
3294;BME280;1659;51.470;6.770;2024-01-30T00:20:19;102533.94;;;9.17;84.01
3294;BME280;1659;51.470;6.770;2024-01-30T00:22:45;102533.06;;;9.18;83.89
3294;BME280;1659;51.470;6.770;2024-01-30T00:25:12;102524.31;;;9.19;84.04
3294;BME280;1659;51.470;6.770;2024-01-30T00:27:39;102526.94;;;9.18;83.85
3294;BME280;1659;51.470;6.770;2024-01-30T00:30:07;102525.16;;;9.18;83.86
3294;BME280;1659;51.470;6.770;2024-01-30T00:32:33;102524.31;;;9.19;83.96
3294;BME280;1659;51.470;6.770;2024-01-30T00:35:00;102526.06;;;9.20;83.80
3294;BME280;1659;51.470;6.770;2024-01-30T00:37:28;102520.81;;;9.22;83.83
3294;BME280;1659;51.470;6.770;2024-01-30T00:39:54;102517.28;;;9.20;83.89
3294;BME280;1659;51.470;6.770;2024-01-30T00:42:21;102519.06;;;9.21;83.98
3294;BME280;1659;51.470;6.770;2024-01-30T00:44:49;102514.63;;;9.20;83.61
3294;BME280;1659;51.470;6.770;2024-01-30T00:47:15;102515.50;;;9.19;83.84
3294;BME280;1659;51.470;6.770;2024-01-30T00:49:42;102514.66;;;9.21;83.72
3294;BME280;1659;51.470;6.770;2024-01-30T00:52:08;102511.16;;;9.22;83.62
3294;BME280;1659;51.470;6.770;2024-01-30T00:54:36;102518.22;;;9.23;83.66
3294;BME280;1659;51.470;6.770;2024-01-30T00:57:03;102517.34;;;9.24;83.60
3294;BME280;1659;51.470;6.770;2024-01-30T00:59:30;102519.13;;;9.25;83.40
3294;BME280;1659;51.470;6.770;2024-01-30T01:01:56;102527.03;;;9.25;83.39
3294;BME280;1659;51.470;6.770;2024-01-30T01:04:23;102520.88;;;9.25;83.70
3294;BME280;1659;51.470;6.770;2024-01-30T01:06:50;102527.03;;;9.25;83.64
3294;BME280;1659;51.470;6.770;2024-01-30T01:09:16;102522.66;;;9.27;83.39
3294;BME280;1659;51.470;6.770;2024-01-30T01:11:44;102517.38;;;9.27;83.18
3294;BME280;1659;51.470;6.770;2024-01-30T01:14:10;102528.81;;;9.26;83.46
3294;BME280;1659;51.470;6.770;2024-01-30T01:16:37;102523.53;;;9.26;83.36
3294;BME280;1659;51.470;6.770;2024-01-30T01:19:04;102526.16;;;9.25;83.57
3294;BME280;1659;51.470;6.770;2024-01-30T01:21:30;102526.97;;;9.22;83.49
3294;BME280;1659;51.470;6.770;2024-01-30T01:23:57;102518.13;;;9.19;83.39
3294;BME280;1659;51.470;6.770;2024-01-30T01:26:23;102523.38;;;9.17;83.41
3294;BME280;1659;51.470;6.770;2024-01-30T01:28:51;102517.19;;;9.15;83.74
3294;BME280;1659;51.470;6.770;2024-01-30T01:31:18;102523.31;;;9.13;83.83
3294;BME280;1659;51.470;6.770;2024-01-30T01:33:44;102517.16;;;9.11;83.79
3294;BME280;1659;51.470;6.770;2024-01-30T01:36:11;102512.72;;;9.10;83.75
3294;BME280;1659;51.470;6.770;2024-01-30T01:38:37;102511.84;;;9.09;83.88
3294;BME280;1659;51.470;6.770;2024-01-30T01:41:04;102511.00;;;9.12;83.56
3294;BME280;1659;51.470;6.770;2024-01-30T01:43:30;102506.59;;;9.11;83.84
3294;BME280;1659;51.470;6.770;2024-01-30T01:45:58;102502.19;;;9.11;83.65
3294;BME280;1659;51.470;6.770;2024-01-30T01:48:26;102507.47;;;9.11;83.70
3294;BME280;1659;51.470;6.770;2024-01-30T01:50:53;102508.31;;;9.07;83.46
3294;BME280;1659;51.470;6.770;2024-01-30T01:53:20;102509.22;;;9.09;83.45
3294;BME280;1659;51.470;6.770;2024-01-30T01:55:47;102503.91;;;9.07;83.50
3294;BME280;1659;51.470;6.770;2024-01-30T01:58:14;102507.41;;;9.06;83.79
3294;BME280;1659;51.470;6.770;2024-01-30T02:00:40;102508.28;;;9.05;83.51
3294;BME280;1659;51.470;6.770;2024-01-30T02:03:10;102503.84;;;9.04;83.54
3294;BME280;1659;51.470;6.770;2024-01-30T02:05:37;102497.66;;;9.02;83.46
3294;BME280;1659;51.470;6.770;2024-01-30T02:08:05;102503.81;;;9.03;83.40
3294;BME280;1659;51.470;6.770;2024-01-30T02:10:32;102492.38;;;9.01;83.79
3294;BME280;1659;51.470;6.770;2024-01-30T02:12:58;102492.34;;;8.99;83.59
3294;BME280;1659;51.470;6.770;2024-01-30T02:15:25;102487.00;;;8.96;83.57
3294;BME280;1659;51.470;6.770;2024-01-30T02:17:51;102484.38;;;8.95;83.79
3294;BME280;1659;51.470;6.770;2024-01-30T02:20:19;102486.09;;;8.93;83.64
3294;BME280;1659;51.470;6.770;2024-01-30T02:22:48;102481.66;;;8.90;83.92
3294;BME280;1659;51.470;6.770;2024-01-30T02:25:15;102485.16;;;8.89;84.06
3294;BME280;1659;51.470;6.770;2024-01-30T02:27:41;102482.47;;;8.87;84.06
3294;BME280;1659;51.470;6.770;2024-01-30T02:30:09;102482.47;;;8.84;84.06
3294;BME280;1659;51.470;6.770;2024-01-30T02:32:36;102479.75;;;8.81;83.81
3294;BME280;1659;51.470;6.770;2024-01-30T02:35:03;102470.94;;;8.79;84.02
3294;BME280;1659;51.470;6.770;2024-01-30T02:37:29;102470.91;;;8.78;84.06
3294;BME280;1659;51.470;6.770;2024-01-30T02:39:57;102475.31;;;8.77;84.34
3294;BME280;1659;51.470;6.770;2024-01-30T02:42:24;102463.00;;;8.78;84.11
3294;BME280;1659;51.470;6.770;2024-01-30T02:44:50;102470.94;;;8.79;84.01
3294;BME280;1659;51.470;6.770;2024-01-30T02:47:17;102454.22;;;8.77;84.06
3294;BME280;1659;51.470;6.770;2024-01-30T02:49:43;102459.53;;;8.80;84.11
3294;BME280;1659;51.470;6.770;2024-01-30T02:52:10;102461.34;;;8.83;84.28
3294;BME280;1659;51.470;6.770;2024-01-30T02:54:36;102453.44;;;8.83;84.23
3294;BME280;1659;51.470;6.770;2024-01-30T02:57:04;102446.38;;;8.82;84.12
3294;BME280;1659;51.470;6.770;2024-01-30T02:59:31;102452.53;;;8.82;83.96
3294;BME280;1659;51.470;6.770;2024-01-30T03:01:58;102452.53;;;8.84;84.28
3294;BME280;1659;51.470;6.770;2024-01-30T03:04:25;102456.13;;;8.86;83.94
3294;BME280;1659;51.470;6.770;2024-01-30T03:06:51;102458.72;;;8.84;84.02
3294;BME280;1659;51.470;6.770;2024-01-30T03:09:18;102458.72;;;8.84;84.29
3294;BME280;1659;51.470;6.770;2024-01-30T03:11:44;102453.50;;;8.86;83.99
3294;BME280;1659;51.470;6.770;2024-01-30T03:14:12;102442.03;;;8.85;84.10
3294;BME280;1659;51.470;6.770;2024-01-30T03:16:39;102447.31;;;8.85;83.84
3294;BME280;1659;51.470;6.770;2024-01-30T03:19:06;102454.38;;;8.86;83.82
3294;BME280;1659;51.470;6.770;2024-01-30T03:21:34;102446.47;;;8.88;83.69
3294;BME280;1659;51.470;6.770;2024-01-30T03:24:01;102448.22;;;8.89;84.14
3294;BME280;1659;51.470;6.770;2024-01-30T03:26:27;102450.00;;;8.88;83.82
3294;BME280;1659;51.470;6.770;2024-01-30T03:28:54;102449.13;;;8.88;83.82
3294;BME280;1659;51.470;6.770;2024-01-30T03:31:22;102448.22;;;8.86;84.06
3294;BME280;1659;51.470;6.770;2024-01-30T03:33:48;102444.59;;;8.82;84.40
3294;BME280;1659;51.470;6.770;2024-01-30T03:36:15;102444.59;;;8.82;83.97
3294;BME280;1659;51.470;6.770;2024-01-30T03:38:41;102442.81;;;8.80;84.49
3294;BME280;1659;51.470;6.770;2024-01-30T03:41:08;102440.13;;;8.77;84.10
3294;BME280;1659;51.470;6.770;2024-01-30T03:43:35;102435.72;;;8.74;84.60
3294;BME280;1659;51.470;6.770;2024-01-30T03:46:02;102440.13;;;8.74;84.40
3294;BME280;1659;51.470;6.770;2024-01-30T03:48:30;102434.81;;;8.72;84.67
3294;BME280;1659;51.470;6.770;2024-01-30T03:50:56;102430.38;;;8.71;84.53
3294;BME280;1659;51.470;6.770;2024-01-30T03:53:23;102437.41;;;8.69;84.52
3294;BME280;1659;51.470;6.770;2024-01-30T03:55:49;102432.09;;;8.67;84.26
3294;BME280;1659;51.470;6.770;2024-01-30T03:58:16;102425.94;;;8.67;84.89
3294;BME280;1659;51.470;6.770;2024-01-30T04:00:42;102431.19;;;8.65;84.56
3294;BME280;1659;51.470;6.770;2024-01-30T04:03:09;102432.03;;;8.64;84.51
3294;BME280;1659;51.470;6.770;2024-01-30T04:05:37;102420.59;;;8.62;84.42
3294;BME280;1659;51.470;6.770;2024-01-30T04:08:04;102418.00;;;8.64;84.42
3294;BME280;1659;51.470;6.770;2024-01-30T04:10:31;102420.63;;;8.64;84.84
3294;BME280;1659;51.470;6.770;2024-01-30T04:12:57;102410.03;;;8.61;84.82
3294;BME280;1659;51.470;6.770;2024-01-30T04:15:24;102410.88;;;8.58;84.50
3294;BME280;1659;51.470;6.770;2024-01-30T04:17:51;102413.53;;;8.60;84.71
3294;BME280;1659;51.470;6.770;2024-01-30T04:20:17;102405.59;;;8.58;84.54
3294;BME280;1659;51.470;6.770;2024-01-30T04:22:46;102408.22;;;8.57;84.95
3294;BME280;1659;51.470;6.770;2024-01-30T04:25:13;102406.38;;;8.53;85.12
3294;BME280;1659;51.470;6.770;2024-01-30T04:27:39;102402.88;;;8.54;84.68
3294;BME280;1659;51.470;6.770;2024-01-30T04:30:07;102409.00;;;8.53;84.59
3294;BME280;1659;51.470;6.770;2024-01-30T04:32:34;102413.34;;;8.49;84.84
3294;BME280;1659;51.470;6.770;2024-01-30T04:35:01;102416.81;;;8.46;85.17
3294;BME280;1659;51.470;6.770;2024-01-30T04:37:27;102424.59;;;8.42;85.07
3294;BME280;1659;51.470;6.770;2024-01-30T04:39:56;102415.00;;;8.42;85.37
3294;BME280;1659;51.470;6.770;2024-01-30T04:42:23;102413.28;;;8.44;85.01
3294;BME280;1659;51.470;6.770;2024-01-30T04:44:49;102413.28;;;8.44;84.83
3294;BME280;1659;51.470;6.770;2024-01-30T04:47:16;102411.56;;;8.46;85.42
3294;BME280;1659;51.470;6.770;2024-01-30T04:49:43;102412.44;;;8.47;85.20
3294;BME280;1659;51.470;6.770;2024-01-30T04:52:09;102413.34;;;8.47;85.02
3294;BME280;1659;51.470;6.770;2024-01-30T04:54:36;102415.94;;;8.46;85.03
3294;BME280;1659;51.470;6.770;2024-01-30T04:57:04;102416.78;;;8.45;85.45
3294;BME280;1659;51.470;6.770;2024-01-30T04:59:34;102415.88;;;8.43;85.57
3294;BME280;1659;51.470;6.770;2024-01-30T05:02:01;102415.00;;;8.42;85.56
3294;BME280;1659;51.470;6.770;2024-01-30T05:04:27;102415.91;;;8.44;85.54
3294;BME280;1659;51.470;6.770;2024-01-30T05:06:54;102411.59;;;8.48;85.32
3294;BME280;1659;51.470;6.770;2024-01-30T05:09:21;102402.88;;;8.54;85.51
3294;BME280;1659;51.470;6.770;2024-01-30T05:11:47;102406.41;;;8.54;85.34
3294;BME280;1659;51.470;6.770;2024-01-30T05:14:15;102416.97;;;8.56;85.60
3294;BME280;1659;51.470;6.770;2024-01-30T05:16:43;102401.16;;;8.56;85.18
3294;BME280;1659;51.470;6.770;2024-01-30T05:19:12;102404.66;;;8.55;85.15
3294;BME280;1659;51.470;6.770;2024-01-30T05:21:38;102401.16;;;8.56;85.71
3294;BME280;1659;51.470;6.770;2024-01-30T05:24:05;102406.47;;;8.59;84.91
3294;BME280;1659;51.470;6.770;2024-01-30T05:26:32;102399.47;;;8.61;85.17
3294;BME280;1659;51.470;6.770;2024-01-30T05:28:59;102404.78;;;8.62;85.40
3294;BME280;1659;51.470;6.770;2024-01-30T05:31:27;102399.53;;;8.64;84.87
3294;BME280;1659;51.470;6.770;2024-01-30T05:33:54;102398.69;;;8.66;85.12
3294;BME280;1659;51.470;6.770;2024-01-30T05:36:20;102396.06;;;8.65;85.14
3294;BME280;1659;51.470;6.770;2024-01-30T05:38:47;102405.66;;;8.63;84.93
3294;BME280;1659;51.470;6.770;2024-01-30T05:41:14;102399.47;;;8.61;85.32
3294;BME280;1659;51.470;6.770;2024-01-30T05:43:40;102404.75;;;8.61;85.29
3294;BME280;1659;51.470;6.770;2024-01-30T05:46:07;102388.88;;;8.56;85.30
3294;BME280;1659;51.470;6.770;2024-01-30T05:48:36;102385.28;;;8.53;85.56
3294;BME280;1659;51.470;6.770;2024-01-30T05:51:02;102395.84;;;8.51;85.42
3294;BME280;1659;51.470;6.770;2024-01-30T05:53:29;102387.00;;;8.49;85.33
3294;BME280;1659;51.470;6.770;2024-01-30T05:55:56;102387.00;;;8.47;85.63
3294;BME280;1659;51.470;6.770;2024-01-30T05:58:22;102379.00;;;8.43;85.51
3294;BME280;1659;51.470;6.770;2024-01-30T06:00:49;102388.66;;;8.42;85.75
3294;BME280;1659;51.470;6.770;2024-01-30T06:03:16;102390.41;;;8.43;85.65
3294;BME280;1659;51.470;6.770;2024-01-30T06:05:43;102390.47;;;8.46;85.49
3294;BME280;1659;51.470;6.770;2024-01-30T06:08:10;102398.47;;;8.51;85.31
3294;BME280;1659;51.470;6.770;2024-01-30T06:10:37;102396.75;;;8.53;85.66
3294;BME280;1659;51.470;6.770;2024-01-30T06:13:03;102400.34;;;8.58;85.58
3294;BME280;1659;51.470;6.770;2024-01-30T06:15:29;102400.38;;;8.60;85.42
3294;BME280;1659;51.470;6.770;2024-01-30T06:17:57;102395.97;;;8.60;85.18
3294;BME280;1659;51.470;6.770;2024-01-30T06:20:24;102399.53;;;8.64;85.56
3294;BME280;1659;51.470;6.770;2024-01-30T06:22:52;102408.34;;;8.66;85.33
3294;BME280;1659;51.470;6.770;2024-01-30T06:25:19;102400.44;;;8.66;85.88
3294;BME280;1659;51.470;6.770;2024-01-30T06:27:45;102400.47;;;8.67;85.76
3294;BME280;1659;51.470;6.770;2024-01-30T06:30:12;102394.38;;;8.72;85.44
3294;BME280;1659;51.470;6.770;2024-01-30T06:32:39;102381.25;;;8.75;85.83
3294;BME280;1659;51.470;6.770;2024-01-30T06:35:06;102392.69;;;8.77;85.69
3294;BME280;1659;51.470;6.770;2024-01-30T06:37:33;102390.13;;;8.81;85.40
3294;BME280;1659;51.470;6.770;2024-01-30T06:40:01;102385.75;;;8.83;85.14
3294;BME280;1659;51.470;6.770;2024-01-30T06:42:27;102380.50;;;8.83;85.06
3294;BME280;1659;51.470;6.770;2024-01-30T06:44:54;102379.63;;;8.83;85.23
3294;BME280;1659;51.470;6.770;2024-01-30T06:47:20;102380.53;;;8.86;85.16
3294;BME280;1659;51.470;6.770;2024-01-30T06:49:47;102386.75;;;8.90;84.98
3294;BME280;1659;51.470;6.770;2024-01-30T06:52:14;102395.53;;;8.91;84.87
3294;BME280;1659;51.470;6.770;2024-01-30T06:54:40;102388.50;;;8.91;85.23
3294;BME280;1659;51.470;6.770;2024-01-30T06:57:08;102397.31;;;8.92;85.00
3294;BME280;1659;51.470;6.770;2024-01-30T06:59:37;102396.44;;;8.93;84.71
3294;BME280;1659;51.470;6.770;2024-01-30T07:02:08;102399.09;;;8.94;84.91
3294;BME280;1659;51.470;6.770;2024-01-30T07:04:36;102406.16;;;8.95;85.00
3294;BME280;1659;51.470;6.770;2024-01-30T07:07:04;102407.03;;;8.96;84.68
3294;BME280;1659;51.470;6.770;2024-01-30T07:09:31;102409.63;;;8.94;85.08
3294;BME280;1659;51.470;6.770;2024-01-30T07:11:57;102411.41;;;8.94;85.19
3294;BME280;1659;51.470;6.770;2024-01-30T07:14:25;102409.63;;;8.93;85.03
3294;BME280;1659;51.470;6.770;2024-01-30T07:16:52;102409.63;;;8.93;85.36
3294;BME280;1659;51.470;6.770;2024-01-30T07:19:19;102410.53;;;8.93;84.91
3294;BME280;1659;51.470;6.770;2024-01-30T07:21:45;102410.53;;;8.93;85.34
3294;BME280;1659;51.470;6.770;2024-01-30T07:24:12;102423.72;;;8.93;84.86
3294;BME280;1659;51.470;6.770;2024-01-30T07:26:38;102416.66;;;8.92;85.09
3294;BME280;1659;51.470;6.770;2024-01-30T07:29:05;102422.78;;;8.91;85.17
3294;BME280;1659;51.470;6.770;2024-01-30T07:31:33;102424.53;;;8.91;85.09
3294;BME280;1659;51.470;6.770;2024-01-30T07:33:59;102419.25;;;8.91;85.27
3294;BME280;1659;51.470;6.770;2024-01-30T07:36:26;102424.56;;;8.92;85.27
3294;BME280;1659;51.470;6.770;2024-01-30T07:38:52;102430.72;;;8.93;85.03
3294;BME280;1659;51.470;6.770;2024-01-30T07:41:20;102434.28;;;8.95;85.25
3294;BME280;1659;51.470;6.770;2024-01-30T07:43:46;102439.56;;;8.96;85.22
3294;BME280;1659;51.470;6.770;2024-01-30T07:46:13;102442.22;;;8.98;85.02
3294;BME280;1659;51.470;6.770;2024-01-30T07:48:41;102445.75;;;9.00;85.06
3294;BME280;1659;51.470;6.770;2024-01-30T07:51:07;102437.88;;;9.01;85.10
3294;BME280;1659;51.470;6.770;2024-01-30T07:53:34;102442.31;;;9.04;85.18
3294;BME280;1659;51.470;6.770;2024-01-30T07:56:00;102448.50;;;9.06;85.22
3294;BME280;1659;51.470;6.770;2024-01-30T07:58:27;102459.06;;;9.07;85.38
3294;BME280;1659;51.470;6.770;2024-01-30T08:00:54;102451.19;;;9.09;85.52
3294;BME280;1659;51.470;6.770;2024-01-30T08:03:23;102458.25;;;9.12;84.93
3294;BME280;1659;51.470;6.770;2024-01-30T08:05:51;102455.63;;;9.13;85.25
3294;BME280;1659;51.470;6.770;2024-01-30T08:08:17;102451.31;;;9.18;84.58
3294;BME280;1659;51.470;6.770;2024-01-30T08:10:44;102448.72;;;9.21;84.80
3294;BME280;1659;51.470;6.770;2024-01-30T08:13:11;102456.66;;;9.23;84.79
3294;BME280;1659;51.470;6.770;2024-01-30T08:15:37;102457.59;;;9.26;84.58
3294;BME280;1659;51.470;6.770;2024-01-30T08:18:04;102464.63;;;9.27;84.52
3294;BME280;1659;51.470;6.770;2024-01-30T08:20:32;102466.44;;;9.30;84.63
3294;BME280;1659;51.470;6.770;2024-01-30T08:23:00;102458.56;;;9.33;84.58
3294;BME280;1659;51.470;6.770;2024-01-30T08:25:26;102465.63;;;9.36;84.38
3294;BME280;1659;51.470;6.770;2024-01-30T08:27:53;102458.59;;;9.38;84.24
3294;BME280;1659;51.470;6.770;2024-01-30T08:30:20;102458.66;;;9.41;84.34
3294;BME280;1659;51.470;6.770;2024-01-30T08:32:46;102463.97;;;9.44;84.24
3294;BME280;1659;51.470;6.770;2024-01-30T08:35:13;102460.50;;;9.48;84.09
3294;BME280;1659;51.470;6.770;2024-01-30T08:37:41;102459.66;;;9.51;83.93
3294;BME280;1659;51.470;6.770;2024-01-30T08:40:10;102465.88;;;9.54;83.92
3294;BME280;1659;51.470;6.770;2024-01-30T08:42:36;102461.50;;;9.56;83.88
3294;BME280;1659;51.470;6.770;2024-01-30T08:45:04;102469.47;;;9.59;84.03
3294;BME280;1659;51.470;6.770;2024-01-30T08:47:30;102469.47;;;9.62;83.70
3294;BME280;1659;51.470;6.770;2024-01-30T08:49:58;102473.03;;;9.66;83.91
3294;BME280;1659;51.470;6.770;2024-01-30T08:52:24;102465.16;;;9.69;83.64
3294;BME280;1659;51.470;6.770;2024-01-30T08:54:50;102472.22;;;9.70;83.56
3294;BME280;1659;51.470;6.770;2024-01-30T08:57:18;102474.88;;;9.72;83.53
3294;BME280;1659;51.470;6.770;2024-01-30T08:59:45;102467.00;;;9.73;83.57
3294;BME280;1659;51.470;6.770;2024-01-30T09:02:13;102480.19;;;9.75;83.59
3294;BME280;1659;51.470;6.770;2024-01-30T09:04:41;102478.44;;;9.74;83.58
3294;BME280;1659;51.470;6.770;2024-01-30T09:07:09;102485.47;;;9.75;83.34
3294;BME280;1659;51.470;6.770;2024-01-30T09:09:37;102491.66;;;9.75;83.40
3294;BME280;1659;51.470;6.770;2024-01-30T09:12:05;102490.75;;;9.76;83.26
3294;BME280;1659;51.470;6.770;2024-01-30T09:14:35;102503.13;;;9.77;83.45
3294;BME280;1659;51.470;6.770;2024-01-30T09:17:02;102504.88;;;9.78;83.40
3294;BME280;1659;51.470;6.770;2024-01-30T09:19:29;102499.59;;;9.80;83.32
3294;BME280;1659;51.470;6.770;2024-01-30T09:21:56;102504.06;;;9.82;83.35
3294;BME280;1659;51.470;6.770;2024-01-30T09:24:23;102505.88;;;9.88;83.38
3294;BME280;1659;51.470;6.770;2024-01-30T09:26:49;102506.81;;;9.93;83.16
3294;BME280;1659;51.470;6.770;2024-01-30T09:29:16;102501.63;;;9.99;83.12
3294;BME280;1659;51.470;6.770;2024-01-30T09:31:44;102500.81;;;10.07;83.12
3294;BME280;1659;51.470;6.770;2024-01-30T09:34:11;102496.56;;;10.19;82.65
3294;BME280;1659;51.470;6.770;2024-01-30T09:36:38;102494.97;;;10.34;82.29
3294;BME280;1659;51.470;6.770;2024-01-30T09:39:04;102488.06;;;10.50;81.92
3294;BME280;1659;51.470;6.770;2024-01-30T09:41:32;102486.50;;;10.70;81.97
3294;BME280;1659;51.470;6.770;2024-01-30T09:44:00;102491.81;;;10.78;81.25
3294;BME280;1659;51.470;6.770;2024-01-30T09:46:30;102484.81;;;10.79;81.49
3294;BME280;1659;51.470;6.770;2024-01-30T09:49:02;102490.13;;;10.82;81.39
3294;BME280;1659;51.470;6.770;2024-01-30T09:51:29;102491.88;;;10.83;80.93
3294;BME280;1659;51.470;6.770;2024-01-30T09:53:56;102496.34;;;10.91;81.14
3294;BME280;1659;51.470;6.770;2024-01-30T09:56:23;102499.13;;;11.08;80.70
3294;BME280;1659;51.470;6.770;2024-01-30T09:58:49;102500.06;;;11.20;80.13
3294;BME280;1659;51.470;6.770;2024-01-30T10:01:17;102500.09;;;11.24;80.05
3294;BME280;1659;51.470;6.770;2024-01-30T10:03:44;102494.84;;;11.26;79.80
3294;BME280;1659;51.470;6.770;2024-01-30T10:06:12;102494.81;;;11.23;79.57
3294;BME280;1659;51.470;6.770;2024-01-30T10:08:42;102493.91;;;11.19;79.42
3294;BME280;1659;51.470;6.770;2024-01-30T10:11:09;102494.78;;;11.20;79.34
3294;BME280;1659;51.470;6.770;2024-01-30T10:13:35;102492.13;;;11.20;79.44
3294;BME280;1659;51.470;6.770;2024-01-30T10:16:02;102489.50;;;11.21;79.26
3294;BME280;1659;51.470;6.770;2024-01-30T10:18:31;102496.56;;;11.22;79.41
3294;BME280;1659;51.470;6.770;2024-01-30T10:20:58;102493.94;;;11.22;79.19
3294;BME280;1659;51.470;6.770;2024-01-30T10:23:26;102498.31;;;11.23;79.24
3294;BME280;1659;51.470;6.770;2024-01-30T10:25:53;102501.88;;;11.24;79.10
3294;BME280;1659;51.470;6.770;2024-01-30T10:28:20;102504.53;;;11.24;79.35
3294;BME280;1659;51.470;6.770;2024-01-30T10:30:57;102507.16;;;11.22;79.22
3294;BME280;1659;51.470;6.770;2024-01-30T10:33:24;102508.03;;;11.23;79.11
3294;BME280;1659;51.470;6.770;2024-01-30T10:35:50;102505.41;;;11.24;79.30
3294;BME280;1659;51.470;6.770;2024-01-30T10:38:19;102505.44;;;11.29;79.13
3294;BME280;1659;51.470;6.770;2024-01-30T10:40:49;102502.81;;;11.35;78.94
3294;BME280;1659;51.470;6.770;2024-01-30T10:43:19;102511.69;;;11.43;79.06
3294;BME280;1659;51.470;6.770;2024-01-30T10:45:49;102520.59;;;11.51;78.90
3294;BME280;1659;51.470;6.770;2024-01-30T10:48:18;102517.94;;;11.58;78.91
3294;BME280;1659;51.470;6.770;2024-01-30T10:50:50;102512.69;;;11.61;78.89
3294;BME280;1659;51.470;6.770;2024-01-30T10:53:19;102520.63;;;11.61;78.50
3294;BME280;1659;51.470;6.770;2024-01-30T10:55:48;102507.34;;;11.58;78.54
3294;BME280;1659;51.470;6.770;2024-01-30T10:58:17;102509.13;;;11.57;78.70
3294;BME280;1659;51.470;6.770;2024-01-30T11:00:44;102513.53;;;11.60;78.41
3294;BME280;1659;51.470;6.770;2024-01-30T11:03:24;102510.03;;;11.64;78.43
3294;BME280;1659;51.470;6.770;2024-01-30T11:05:51;102513.59;;;11.69;78.17
3294;BME280;1659;51.470;6.770;2024-01-30T11:08:23;102515.41;;;11.76;78.37
3294;BME280;1659;51.470;6.770;2024-01-30T11:10:55;102502.16;;;11.78;78.25
3294;BME280;1659;51.470;6.770;2024-01-30T11:13:21;102506.59;;;11.82;77.92
3294;BME280;1659;51.470;6.770;2024-01-30T11:15:48;102503.94;;;11.83;77.87
3294;BME280;1659;51.470;6.770;2024-01-30T11:18:22;102505.72;;;11.86;78.07
3294;BME280;1659;51.470;6.770;2024-01-30T11:20:50;102518.97;;;11.89;78.04
3294;BME280;1659;51.470;6.770;2024-01-30T11:23:17;102516.38;;;11.90;78.21
3294;BME280;1659;51.470;6.770;2024-01-30T11:25:44;102521.69;;;11.94;78.06
3294;BME280;1659;51.470;6.770;2024-01-30T11:28:13;102520.78;;;11.95;78.18
3294;BME280;1659;51.470;6.770;2024-01-30T11:30:41;102521.69;;;11.92;78.39
3294;BME280;1659;51.470;6.770;2024-01-30T11:33:08;102522.50;;;11.89;78.09
3294;BME280;1659;51.470;6.770;2024-01-30T11:35:37;102524.25;;;11.86;78.37
3294;BME280;1659;51.470;6.770;2024-01-30T11:38:07;102524.25;;;11.81;78.23
3294;BME280;1659;51.470;6.770;2024-01-30T11:40:36;102525.97;;;11.79;78.58
3294;BME280;1659;51.470;6.770;2024-01-30T11:43:04;102527.75;;;11.77;78.52
3294;BME280;1659;51.470;6.770;2024-01-30T11:45:31;102518.91;;;11.75;78.55
3294;BME280;1659;51.470;6.770;2024-01-30T11:47:58;102522.44;;;11.71;78.56
3294;BME280;1659;51.470;6.770;2024-01-30T11:50:26;102519.78;;;11.71;79.07
3294;BME280;1659;51.470;6.770;2024-01-30T11:52:54;102518.00;;;11.68;78.81
3294;BME280;1659;51.470;6.770;2024-01-30T11:55:23;102514.47;;;11.66;79.23
3294;BME280;1659;51.470;6.770;2024-01-30T11:57:50;102513.59;;;11.66;79.23
3294;BME280;1659;51.470;6.770;2024-01-30T12:00:17;102500.34;;;11.64;79.31
3294;BME280;1659;51.470;6.770;2024-01-30T12:02:49;102503.84;;;11.65;78.95
3294;BME280;1659;51.470;6.770;2024-01-30T12:05:16;102504.75;;;11.67;79.18
3294;BME280;1659;51.470;6.770;2024-01-30T12:07:44;102503.00;;;11.69;79.15
3294;BME280;1659;51.470;6.770;2024-01-30T12:10:11;102504.78;;;11.71;79.15
3294;BME280;1659;51.470;6.770;2024-01-30T12:12:42;102502.13;;;11.73;79.42
3294;BME280;1659;51.470;6.770;2024-01-30T12:15:10;102493.31;;;11.73;79.31
3294;BME280;1659;51.470;6.770;2024-01-30T12:17:37;102507.44;;;11.73;79.44
3294;BME280;1659;51.470;6.770;2024-01-30T12:20:04;102501.25;;;11.71;79.47
3294;BME280;1659;51.470;6.770;2024-01-30T12:22:33;102503.00;;;11.72;79.46
3294;BME280;1659;51.470;6.770;2024-01-30T12:25:00;102495.94;;;11.71;79.43
3294;BME280;1659;51.470;6.770;2024-01-30T12:27:26;102503.00;;;11.72;79.41
3294;BME280;1659;51.470;6.770;2024-01-30T12:29:58;102500.34;;;11.72;79.59
3294;BME280;1659;51.470;6.770;2024-01-30T12:32:24;102509.22;;;11.73;79.61
3294;BME280;1659;51.470;6.770;2024-01-30T12:34:54;102503.00;;;11.70;79.62
3294;BME280;1659;51.470;6.770;2024-01-30T12:37:21;102498.59;;;11.71;79.68
3294;BME280;1659;51.470;6.770;2024-01-30T12:39:51;102503.00;;;11.72;79.75
3294;BME280;1659;51.470;6.770;2024-01-30T12:42:18;102505.66;;;11.72;79.81
3294;BME280;1659;51.470;6.770;2024-01-30T12:44:45;102499.47;;;11.70;79.77
3294;BME280;1659;51.470;6.770;2024-01-30T12:47:13;102505.63;;;11.70;80.26
3294;BME280;1659;51.470;6.770;2024-01-30T12:49:41;102506.53;;;11.71;80.02
3294;BME280;1659;51.470;6.770;2024-01-30T12:52:08;102503.00;;;11.70;80.08
3294;BME280;1659;51.470;6.770;2024-01-30T12:54:34;102508.28;;;11.72;80.38
3294;BME280;1659;51.470;6.770;2024-01-30T12:57:01;102504.78;;;11.73;80.56
3294;BME280;1659;51.470;6.770;2024-01-30T12:59:28;102507.44;;;11.75;80.79
3294;BME280;1659;51.470;6.770;2024-01-30T13:01:54;102511.84;;;11.77;80.55
3294;BME280;1659;51.470;6.770;2024-01-30T13:04:23;102509.22;;;11.79;80.68
3294;BME280;1659;51.470;6.770;2024-01-30T13:06:49;102512.75;;;11.81;80.90
3294;BME280;1659;51.470;6.770;2024-01-30T13:09:16;102519.84;;;11.82;80.88
3294;BME280;1659;51.470;6.770;2024-01-30T13:11:42;102518.06;;;11.85;81.18
3294;BME280;1659;51.470;6.770;2024-01-30T13:14:09;102515.44;;;11.88;80.97
3294;BME280;1659;51.470;6.770;2024-01-30T13:16:35;102519.88;;;11.91;81.32
3294;BME280;1659;51.470;6.770;2024-01-30T13:19:02;102511.97;;;11.96;81.01